createdAt,value
2022-10-22T00:01:12.987Z,13.43
2022-10-22T00:03:38.719Z,13.42
2022-10-22T00:06:05.172Z,13.40
2022-10-22T00:08:30.921Z,13.39
2022-10-22T00:10:56.690Z,13.39
2022-10-22T00:13:22.361Z,13.41
2022-10-22T00:15:48.076Z,13.42
2022-10-22T00:18:13.978Z,13.46
2022-10-22T00:20:39.662Z,13.48
2022-10-22T00:23:05.441Z,13.48
2022-10-22T00:25:33.999Z,13.47
2022-10-22T00:27:59.672Z,13.43
2022-10-22T00:30:25.326Z,13.44
2022-10-22T00:32:51.054Z,13.42
2022-10-22T00:35:16.872Z,13.41
2022-10-22T00:37:42.534Z,13.43
2022-10-22T00:40:09.136Z,13.46
2022-10-22T00:42:34.872Z,13.50
2022-10-22T00:45:09.340Z,13.55
2022-10-22T00:47:38.916Z,13.56
2022-10-22T00:50:10.669Z,13.60
2022-10-22T00:52:36.853Z,13.61
2022-10-22T00:55:03.960Z,13.61
2022-10-22T00:57:30.116Z,13.61
2022-10-22T00:59:57.041Z,13.63
2022-10-22T01:02:23.113Z,13.61
2022-10-22T01:04:48.854Z,13.60
2022-10-22T01:07:17.492Z,13.57
2022-10-22T01:09:54.120Z,13.58
2022-10-22T01:12:50.686Z,13.58
2022-10-22T01:15:30.427Z,13.58
2022-10-22T01:18:08.404Z,13.57
2022-10-22T01:21:11.777Z,13.59
2022-10-22T01:23:46.441Z,13.65
2022-10-22T01:29:04.677Z,13.73
2022-10-22T01:31:37.142Z,13.75
2022-10-22T01:34:05.509Z,13.75
2022-10-22T01:36:33.965Z,13.78
2022-10-22T01:39:01.539Z,13.79
2022-10-22T01:41:30.232Z,13.79
2022-10-22T01:43:56.004Z,13.82
2022-10-22T01:46:24.364Z,13.81
2022-10-22T01:49:21.699Z,13.83
2022-10-22T01:51:59.571Z,13.86
2022-10-22T01:54:43.485Z,13.87
2022-10-22T01:57:27.760Z,13.86
2022-10-22T02:00:00.774Z,13.88
2022-10-22T02:02:41.354Z,13.83
2022-10-22T02:05:20.275Z,13.81
2022-10-22T02:07:53.877Z,13.80
2022-10-22T02:10:20.840Z,13.79
2022-10-22T02:12:51.186Z,13.79
2022-10-22T02:15:19.325Z,13.74
2022-10-22T02:17:46.336Z,13.71
2022-10-22T02:20:18.080Z,13.66
2022-10-22T02:22:44.369Z,13.65
2022-10-22T02:25:10.855Z,13.65
2022-10-22T02:28:11.570Z,13.65
2022-10-22T02:30:39.197Z,13.67
2022-10-22T02:33:15.945Z,13.68
2022-10-22T02:35:42.539Z,13.68
2022-10-22T02:38:09.800Z,13.65
2022-10-22T02:40:35.976Z,13.60
2022-10-22T02:43:04.924Z,13.58
2022-10-22T02:45:31.204Z,13.54
2022-10-22T02:47:57.972Z,13.54
2022-10-22T02:50:23.716Z,13.52
2022-10-22T02:52:49.386Z,13.50
2022-10-22T02:55:15.136Z,13.49
2022-10-22T02:57:41.662Z,13.48
2022-10-22T03:00:09.184Z,13.49
2022-10-22T03:02:34.934Z,13.43
2022-10-22T03:05:00.937Z,13.41
2022-10-22T03:07:26.635Z,13.39
2022-10-22T03:09:52.510Z,13.39
2022-10-22T03:12:18.308Z,13.36
2022-10-22T03:14:43.981Z,13.39
2022-10-22T03:17:09.692Z,13.41
2022-10-22T03:19:35.431Z,13.41
2022-10-22T03:22:04.216Z,13.41
2022-10-22T03:24:34.855Z,13.43
2022-10-22T03:27:00.577Z,13.45
2022-10-22T03:29:27.207Z,13.48
2022-10-22T03:31:54.007Z,13.50
2022-10-22T03:34:20.076Z,13.49
2022-10-22T03:36:46.752Z,13.47
2022-10-22T03:39:15.040Z,13.44
2022-10-22T03:41:40.949Z,13.41
2022-10-22T03:44:06.871Z,13.41
2022-10-22T03:46:32.681Z,13.40
2022-10-22T03:48:58.611Z,13.38
2022-10-22T03:51:27.136Z,13.39
2022-10-22T03:53:53.236Z,13.39
2022-10-22T03:56:18.951Z,13.36
2022-10-22T03:58:44.871Z,13.36
2022-10-22T04:01:12.876Z,13.39
2022-10-22T04:03:39.506Z,13.38
2022-10-22T04:06:08.426Z,13.40
2022-10-22T04:08:34.722Z,13.39
2022-10-22T04:11:01.440Z,13.37
2022-10-22T04:13:27.267Z,13.34
2022-10-22T04:15:53.423Z,13.36
2022-10-22T04:18:19.920Z,13.36
2022-10-22T04:20:45.781Z,13.33
2022-10-22T04:23:12.362Z,13.35
2022-10-22T04:25:38.419Z,13.36
2022-10-22T04:28:07.872Z,13.37
2022-10-22T04:30:34.737Z,13.39
2022-10-22T04:33:00.662Z,13.38
2022-10-22T04:35:26.421Z,13.37
2022-10-22T04:37:52.141Z,13.38
2022-10-22T04:40:17.836Z,13.39
2022-10-22T04:42:43.516Z,13.41
2022-10-22T04:45:09.804Z,13.39
2022-10-22T04:47:35.524Z,13.39
2022-10-22T04:50:01.184Z,13.40
2022-10-22T04:52:26.880Z,13.41
2022-10-22T04:54:52.629Z,13.40
2022-10-22T04:57:18.289Z,13.42
2022-10-22T04:59:43.939Z,13.44
2022-10-22T05:02:09.668Z,13.45
2022-10-22T05:04:35.322Z,13.45
2022-10-22T05:07:01.093Z,13.46
2022-10-22T05:09:26.741Z,13.47
2022-10-22T05:11:52.716Z,13.46
2022-10-22T05:14:21.174Z,13.42
2022-10-22T05:16:47.380Z,13.34
2022-10-22T05:19:26.003Z,13.28
2022-10-22T05:21:54.730Z,13.21
2022-10-22T05:24:21.129Z,13.17
2022-10-22T05:26:50.738Z,13.13
2022-10-22T05:29:16.428Z,13.05
2022-10-22T05:31:42.320Z,13.01
2022-10-22T05:34:08.116Z,12.98
2022-10-22T05:36:33.847Z,12.94
2022-10-22T05:38:59.691Z,12.85
2022-10-22T05:41:27.524Z,12.83
2022-10-22T05:43:58.018Z,12.80
2022-10-22T05:46:26.157Z,12.76
2022-10-22T05:48:57.171Z,12.67
2022-10-22T05:51:24.109Z,12.61
2022-10-22T05:53:52.685Z,12.58
2022-10-22T05:56:18.343Z,12.57
2022-10-22T05:58:44.349Z,12.54
2022-10-22T06:01:21.799Z,12.53
2022-10-22T06:03:48.310Z,12.54
2022-10-22T06:06:19.275Z,12.51
2022-10-22T06:08:49.876Z,12.49
2022-10-22T06:11:17.161Z,12.51
2022-10-22T06:13:44.456Z,12.55
2022-10-22T06:16:10.541Z,12.58
2022-10-22T06:18:36.406Z,12.62
2022-10-22T06:21:11.427Z,12.66
2022-10-22T06:23:41.510Z,12.70
2022-10-22T06:26:07.501Z,12.75
2022-10-22T06:28:33.356Z,12.72
2022-10-22T06:31:00.145Z,12.69
2022-10-22T06:33:26.933Z,12.67
2022-10-22T06:35:53.641Z,12.68
2022-10-22T06:38:19.450Z,12.72
2022-10-22T06:40:45.175Z,12.78
2022-10-22T06:43:12.096Z,12.85
2022-10-22T06:45:38.202Z,12.96
2022-10-22T06:48:04.183Z,13.04
2022-10-22T06:50:29.892Z,13.12
2022-10-22T06:52:55.641Z,13.23
2022-10-22T06:55:21.428Z,13.32
2022-10-22T06:57:47.168Z,13.38
2022-10-22T07:00:13.409Z,13.43
2022-10-22T07:02:39.384Z,13.48
2022-10-22T07:05:05.732Z,13.50
2022-10-22T07:07:31.415Z,13.53
2022-10-22T07:09:57.115Z,13.54
2022-10-22T07:12:22.876Z,13.58
2022-10-22T07:14:49.065Z,13.59
2022-10-22T07:17:14.923Z,13.62
2022-10-22T07:19:40.642Z,13.66
2022-10-22T07:22:06.303Z,13.70
2022-10-22T07:24:32.290Z,13.76
2022-10-22T07:26:58.155Z,13.82
2022-10-22T07:29:23.870Z,13.88
2022-10-22T07:31:49.580Z,13.92
2022-10-22T07:34:15.250Z,14.02
2022-10-22T07:36:41.045Z,14.08
2022-10-22T07:39:06.800Z,14.12
2022-10-22T07:41:32.688Z,14.24
2022-10-22T07:43:58.543Z,14.33
2022-10-22T07:46:24.963Z,14.42
2022-10-22T07:48:51.168Z,14.53
2022-10-22T07:51:17.083Z,14.67
2022-10-22T07:53:42.904Z,14.80
2022-10-22T07:56:10.045Z,14.91
2022-10-22T07:58:35.986Z,15.01
2022-10-22T08:01:05.026Z,15.10
2022-10-22T08:03:31.843Z,15.13
2022-10-22T08:05:58.099Z,15.14
2022-10-22T08:08:27.055Z,15.20
2022-10-22T08:10:58.632Z,15.23
2022-10-22T08:13:25.539Z,15.23
2022-10-22T08:15:52.484Z,15.21
2022-10-22T08:18:22.084Z,15.21
2022-10-22T08:20:47.792Z,15.20
2022-10-22T08:23:13.578Z,15.22
2022-10-22T08:25:39.554Z,15.26
2022-10-22T08:28:05.262Z,15.30
2022-10-22T08:30:33.146Z,15.30
2022-10-22T08:32:58.981Z,15.20
2022-10-22T08:35:24.645Z,15.18
2022-10-22T08:37:50.347Z,15.21
2022-10-22T08:40:25.008Z,15.26
2022-10-22T08:43:05.997Z,15.30
2022-10-22T08:45:34.495Z,15.34
2022-10-22T08:48:40.899Z,15.32
2022-10-22T08:51:14.180Z,15.29
2022-10-22T08:54:06.848Z,15.31
2022-10-22T08:56:36.161Z,15.32
2022-10-22T08:59:05.349Z,15.34
2022-10-22T09:01:37.868Z,15.42
2022-10-22T09:04:13.280Z,15.52
2022-10-22T09:06:41.111Z,15.65
2022-10-22T09:09:15.844Z,15.70
2022-10-22T09:11:44.525Z,15.78
2022-10-22T09:17:14.565Z,15.94
2022-10-22T09:19:57.885Z,16.04
2022-10-22T09:22:31.788Z,16.17
2022-10-22T09:25:01.801Z,16.28
2022-10-22T09:27:30.111Z,16.35
2022-10-22T09:29:55.919Z,16.54
2022-10-22T09:32:22.012Z,16.51
2022-10-22T09:34:49.133Z,16.48
2022-10-22T09:37:19.026Z,16.53
2022-10-22T09:39:48.018Z,16.66
2022-10-22T09:42:16.473Z,16.71
2022-10-22T09:44:46.168Z,16.65
2022-10-22T09:47:42.749Z,16.50
2022-10-22T09:50:24.566Z,16.36
2022-10-22T09:53:16.475Z,16.27
2022-10-22T09:55:42.901Z,16.11
2022-10-22T09:58:12.897Z,16.12
2022-10-22T10:00:42.683Z,16.09
2022-10-22T10:03:16.526Z,16.14
2022-10-22T10:05:43.284Z,16.19
2022-10-22T10:08:14.114Z,16.29
2022-10-22T10:10:49.267Z,16.40
2022-10-22T10:13:39.680Z,16.60
2022-10-22T10:16:26.796Z,16.71
2022-10-22T10:19:04.113Z,16.76
2022-10-22T10:21:38.402Z,16.84
2022-10-22T10:24:23.058Z,16.95
2022-10-22T10:27:06.673Z,17.13
2022-10-22T10:29:41.457Z,17.25
2022-10-22T10:32:25.277Z,17.23
2022-10-22T10:34:50.999Z,17.14
2022-10-22T10:37:24.818Z,17.13
2022-10-22T10:40:12.777Z,17.14
2022-10-22T10:42:54.662Z,17.24
2022-10-22T10:45:55.730Z,17.23
2022-10-22T10:48:38.684Z,17.19
2022-10-22T10:51:17.704Z,17.26
2022-10-22T10:53:54.684Z,17.30
2022-10-22T10:56:49.794Z,17.44
2022-10-22T10:59:43.209Z,17.55
2022-10-22T11:02:08.841Z,17.69
2022-10-22T11:04:53.657Z,17.83
2022-10-22T11:07:40.946Z,17.93
2022-10-22T11:10:18.766Z,18.24
2022-10-22T11:12:50.726Z,18.50
2022-10-22T11:15:34.857Z,18.77
2022-10-22T11:18:14.463Z,18.90
2022-10-22T11:20:56.350Z,18.99
2022-10-22T11:23:35.184Z,19.02
2022-10-22T11:26:04.729Z,19.21
2022-10-22T11:28:39.933Z,19.26
2022-10-22T11:31:16.018Z,19.41
2022-10-22T11:33:54.576Z,19.56
2022-10-22T11:36:28.762Z,19.58
2022-10-22T11:38:55.129Z,19.73
2022-10-22T11:41:29.854Z,19.80
2022-10-22T11:44:04.184Z,19.85
2022-10-22T11:46:52.980Z,19.83
2022-10-22T11:49:24.419Z,19.79
2022-10-22T11:51:51.092Z,19.76
2022-10-22T11:54:28.317Z,19.83
2022-10-22T11:57:18.637Z,19.91
2022-10-22T11:59:47.131Z,19.91
2022-10-22T12:02:27.803Z,19.89
2022-10-22T12:05:33.140Z,19.89
2022-10-22T12:08:15.857Z,20.01
2022-10-22T12:10:59.438Z,20.00
2022-10-22T12:13:29.653Z,19.95
2022-10-22T12:16:00.806Z,19.67
2022-10-22T12:18:33.714Z,19.41
2022-10-22T12:20:59.570Z,19.15
2022-10-22T12:23:30.856Z,19.01
2022-10-22T12:25:57.031Z,18.97
2022-10-22T12:28:22.736Z,19.03
2022-10-22T12:30:48.472Z,19.06
2022-10-22T12:33:22.320Z,19.10
2022-10-22T12:35:52.273Z,18.96
2022-10-22T12:38:21.532Z,18.86
2022-10-22T12:40:50.037Z,18.88
2022-10-22T12:43:25.858Z,18.98
2022-10-22T12:45:52.190Z,18.99
2022-10-22T12:48:24.100Z,18.91
2022-10-22T12:50:55.549Z,18.98
2022-10-22T12:53:27.221Z,19.00
2022-10-22T12:55:55.414Z,19.03
2022-10-22T12:58:39.154Z,19.06
2022-10-22T13:01:05.316Z,19.11
2022-10-22T13:03:37.904Z,19.14
2022-10-22T13:06:12.344Z,19.21
2022-10-22T13:08:39.664Z,19.28
2022-10-22T13:11:10.247Z,19.32
2022-10-22T13:13:35.829Z,19.38
2022-10-22T13:16:23.444Z,19.35
2022-10-22T13:18:51.626Z,19.33
2022-10-22T13:21:25.784Z,19.22
2022-10-22T13:23:55.173Z,19.13
2022-10-22T13:26:22.133Z,18.95
2022-10-22T13:28:52.906Z,18.82
2022-10-22T13:31:22.281Z,18.76
2022-10-22T13:33:53.815Z,18.70
2022-10-22T13:36:19.694Z,18.68
2022-10-22T13:38:46.022Z,18.67
2022-10-22T13:41:21.933Z,18.70
2022-10-22T13:43:48.023Z,18.75
2022-10-22T13:46:14.119Z,18.65
2022-10-22T13:48:40.269Z,18.70
2022-10-22T13:51:15.614Z,18.77
2022-10-22T13:53:42.930Z,18.72
2022-10-22T13:56:13.289Z,18.71
2022-10-22T13:58:39.047Z,18.68
2022-10-22T14:01:07.993Z,18.68
2022-10-22T14:03:36.414Z,18.69
2022-10-22T14:06:02.157Z,18.71
2022-10-22T14:08:28.007Z,18.67
2022-10-22T14:10:53.813Z,18.67
2022-10-22T14:13:20.763Z,18.64
2022-10-22T14:15:48.661Z,18.56
2022-10-22T14:18:33.119Z,18.52
2022-10-22T14:21:04.296Z,18.54
2022-10-22T14:23:31.177Z,18.52
2022-10-22T14:25:58.252Z,18.47
2022-10-22T14:28:24.106Z,18.48
2022-10-22T14:30:50.618Z,18.48
2022-10-22T14:33:30.371Z,18.44
2022-10-22T14:35:57.233Z,18.41
2022-10-22T14:38:23.015Z,18.41
2022-10-22T14:40:49.796Z,18.42
2022-10-22T14:43:20.344Z,18.41
2022-10-22T14:45:46.134Z,18.39
2022-10-22T14:48:11.838Z,18.36
2022-10-22T14:50:37.611Z,18.35
2022-10-22T14:53:03.435Z,18.35
2022-10-22T14:55:29.206Z,18.32
2022-10-22T14:57:55.000Z,18.30
2022-10-22T15:00:21.088Z,18.25
2022-10-22T15:02:47.511Z,18.23
2022-10-22T15:05:14.572Z,18.17
2022-10-22T15:07:40.854Z,18.16
2022-10-22T15:10:07.894Z,18.15
2022-10-22T15:12:33.958Z,18.12
2022-10-22T15:14:59.645Z,18.07
2022-10-22T15:17:25.420Z,18.04
2022-10-22T15:19:52.337Z,18.06
2022-10-22T15:22:18.555Z,18.10
2022-10-22T15:24:44.885Z,18.09
2022-10-22T15:27:12.974Z,18.08
2022-10-22T15:29:39.812Z,18.09
2022-10-22T15:32:06.117Z,18.02
2022-10-22T15:34:34.033Z,17.94
2022-10-22T15:37:01.950Z,17.86
2022-10-22T15:39:28.180Z,17.78
2022-10-22T15:41:54.679Z,17.72
2022-10-22T15:44:25.885Z,17.64
2022-10-22T15:46:53.971Z,17.55
2022-10-22T15:49:21.303Z,17.44
2022-10-22T15:51:47.033Z,17.34
2022-10-22T15:54:15.831Z,17.26
2022-10-22T15:56:42.046Z,17.23
2022-10-22T15:59:10.481Z,17.17
2022-10-22T16:01:36.629Z,17.10
2022-10-22T16:04:03.556Z,17.04
2022-10-22T16:06:38.694Z,16.94
2022-10-22T16:09:10.316Z,16.83
2022-10-22T16:11:37.324Z,16.73
2022-10-22T16:14:04.179Z,16.67
2022-10-22T16:16:32.776Z,16.61
2022-10-22T16:18:59.153Z,16.54
2022-10-22T16:21:25.204Z,16.48
2022-10-22T16:23:51.477Z,16.43
2022-10-22T16:26:18.197Z,16.39
2022-10-22T16:28:45.656Z,16.36
2022-10-22T16:31:13.024Z,16.32
2022-10-22T16:33:44.474Z,16.25
2022-10-22T16:36:14.259Z,16.19
2022-10-22T16:38:40.004Z,16.15
2022-10-22T16:41:15.775Z,16.05
2022-10-22T16:43:43.509Z,15.94
2022-10-22T16:46:10.187Z,15.82
2022-10-22T16:48:39.816Z,15.73
2022-10-22T16:51:07.990Z,15.60
2022-10-22T16:56:00.867Z,15.36
2022-10-22T16:58:26.589Z,15.26
2022-10-22T17:00:52.325Z,15.14
2022-10-22T17:03:18.003Z,15.05
2022-10-22T17:05:43.689Z,14.97
2022-10-22T17:08:09.357Z,14.90
2022-10-22T17:10:36.606Z,14.83
2022-10-22T17:13:04.078Z,14.76
2022-10-22T17:15:30.122Z,14.69
2022-10-22T17:17:58.290Z,14.61
2022-10-22T17:20:23.937Z,14.53
2022-10-22T17:22:49.940Z,14.45
2022-10-22T17:25:21.225Z,14.38
2022-10-22T17:27:47.124Z,14.31
2022-10-22T17:30:21.913Z,14.25
2022-10-22T17:32:50.685Z,14.16
2022-10-22T17:35:16.925Z,14.09
2022-10-22T17:37:43.317Z,14.03
2022-10-22T17:40:09.547Z,13.97
2022-10-22T17:42:35.265Z,13.88
2022-10-22T17:45:01.051Z,13.77
2022-10-22T17:47:26.828Z,13.67
2022-10-22T17:49:52.574Z,13.58
2022-10-22T17:52:18.242Z,13.48
2022-10-22T17:54:43.934Z,13.42
2022-10-22T17:57:12.370Z,13.36
2022-10-22T17:59:38.023Z,13.31
2022-10-22T18:02:03.843Z,13.27
2022-10-22T18:04:31.014Z,13.24
2022-10-22T18:06:58.056Z,13.21
2022-10-22T18:09:24.184Z,13.19
2022-10-22T18:11:51.861Z,13.14
2022-10-22T18:14:19.141Z,13.08
2022-10-22T18:16:45.572Z,13.03
2022-10-22T18:19:15.085Z,13.00
2022-10-22T18:21:40.832Z,12.95
2022-10-22T18:24:06.877Z,12.89
2022-10-22T18:26:32.805Z,12.86
2022-10-22T18:28:58.889Z,12.80
2022-10-22T18:31:26.221Z,12.70
2022-10-22T18:36:24.943Z,12.57
2022-10-22T18:38:56.403Z,12.53
2022-10-22T18:41:23.149Z,12.47
2022-10-22T18:44:03.094Z,12.44
2022-10-22T18:46:30.289Z,12.43
2022-10-22T18:48:57.701Z,12.40
2022-10-22T18:51:24.271Z,12.36
2022-10-22T18:54:04.567Z,12.34
2022-10-22T18:56:38.750Z,12.33
2022-10-22T18:59:04.956Z,12.32
2022-10-22T19:01:30.730Z,12.34
2022-10-22T19:03:56.605Z,12.33
2022-10-22T19:06:33.212Z,12.31
2022-10-22T19:09:01.617Z,12.28
2022-10-22T19:11:27.362Z,12.27
2022-10-22T19:13:53.030Z,12.28
2022-10-22T19:16:22.912Z,12.26
2022-10-22T19:18:50.545Z,12.25
2022-10-22T19:21:16.297Z,12.23
2022-10-22T19:26:14.584Z,12.16
2022-10-22T19:28:40.654Z,12.14
2022-10-22T19:31:08.630Z,12.12
2022-10-22T19:33:35.592Z,12.07
2022-10-22T19:36:05.660Z,12.04
2022-10-22T19:38:31.486Z,12.02
2022-10-22T19:40:57.654Z,11.99
2022-10-22T19:43:23.630Z,11.96
2022-10-22T19:45:49.402Z,11.95
2022-10-22T19:48:15.153Z,11.92
2022-10-22T19:50:40.805Z,11.88
2022-10-22T19:53:06.815Z,11.84
2022-10-22T19:55:32.480Z,11.81
2022-10-22T19:57:58.204Z,11.81
2022-10-22T20:00:23.866Z,11.81
2022-10-22T20:02:49.546Z,11.81
2022-10-22T20:05:15.385Z,11.81
2022-10-22T20:07:41.286Z,11.81
2022-10-22T20:10:07.451Z,11.87
2022-10-22T20:12:33.127Z,11.90
2022-10-22T20:15:00.876Z,11.94
2022-10-22T20:17:26.599Z,11.92
2022-10-22T20:19:52.268Z,11.88
2022-10-22T20:22:18.912Z,11.85
2022-10-22T20:24:44.697Z,11.81
2022-10-22T20:27:10.674Z,11.73
2022-10-22T20:29:36.395Z,11.69
2022-10-22T20:32:03.332Z,11.65
2022-10-22T20:34:31.527Z,11.57
2022-10-22T20:36:57.421Z,11.51
2022-10-22T20:39:23.133Z,11.48
2022-10-22T20:41:49.582Z,11.45
2022-10-22T20:44:16.956Z,11.38
2022-10-22T20:46:42.762Z,11.30
2022-10-22T20:49:12.238Z,11.28
2022-10-22T20:51:38.457Z,11.29
2022-10-22T20:54:05.844Z,11.30
2022-10-22T20:56:31.833Z,11.26
2022-10-22T20:59:03.877Z,11.25
2022-10-22T21:01:36.078Z,11.26
2022-10-22T21:04:02.104Z,11.23
2022-10-22T21:06:28.495Z,11.24
2022-10-22T21:08:54.263Z,11.22
2022-10-22T21:11:20.392Z,11.20
2022-10-22T21:13:46.485Z,11.18
2022-10-22T21:16:14.301Z,11.17
2022-10-22T21:18:40.033Z,11.19
2022-10-22T21:21:07.273Z,11.20
2022-10-22T21:23:34.794Z,11.20
2022-10-22T21:26:00.945Z,11.16
2022-10-22T21:28:27.841Z,11.07
2022-10-22T21:30:53.524Z,10.99
2022-10-22T21:33:19.707Z,10.95
2022-10-22T21:35:53.599Z,10.92
2022-10-22T21:38:20.402Z,10.93
2022-10-22T21:40:46.514Z,10.94
2022-10-22T21:43:14.149Z,10.96
2022-10-22T21:45:39.926Z,10.99
2022-10-22T21:48:06.030Z,11.02
2022-10-22T21:50:32.162Z,11.00
2022-10-22T21:52:57.941Z,10.95
2022-10-22T21:55:23.644Z,10.91
2022-10-22T21:57:49.327Z,10.89
2022-10-22T22:00:19.008Z,10.91
2022-10-22T22:02:45.013Z,10.92
2022-10-22T22:05:10.789Z,10.93
2022-10-22T22:07:36.523Z,10.88
2022-10-22T22:10:02.372Z,10.86
2022-10-22T22:12:28.059Z,10.85
2022-10-22T22:14:54.002Z,10.82
2022-10-22T22:17:19.689Z,10.75
2022-10-22T22:19:45.362Z,10.73
2022-10-22T22:22:11.066Z,10.69
2022-10-22T22:24:38.932Z,10.69
2022-10-22T22:27:05.413Z,10.64
2022-10-22T22:29:31.209Z,10.60
2022-10-22T22:31:57.109Z,10.58
2022-10-22T22:34:23.041Z,10.58
2022-10-22T22:36:49.023Z,10.61
2022-10-22T22:39:18.577Z,10.66
2022-10-22T22:41:45.053Z,10.67
2022-10-22T22:44:11.325Z,10.66
2022-10-22T22:46:37.196Z,10.67
2022-10-22T22:49:03.225Z,10.65
2022-10-22T22:51:29.241Z,10.67
2022-10-22T22:53:57.280Z,10.67
2022-10-22T22:56:25.889Z,10.64
2022-10-22T22:58:51.862Z,10.57
2022-10-22T23:01:26.098Z,10.54
2022-10-22T23:04:06.814Z,10.52
2022-10-22T23:06:35.399Z,10.50
2022-10-22T23:09:02.104Z,10.49
2022-10-22T23:11:28.188Z,10.51
2022-10-22T23:13:59.108Z,10.51
2022-10-22T23:16:26.889Z,10.51
2022-10-22T23:18:54.367Z,10.50
2022-10-22T23:21:30.709Z,10.48
2022-10-22T23:23:59.612Z,10.45
2022-10-22T23:26:29.615Z,10.45
2022-10-22T23:29:00.316Z,10.48
2022-10-22T23:31:26.092Z,10.49
2022-10-22T23:33:51.884Z,10.49
2022-10-22T23:36:17.754Z,10.47
2022-10-22T23:38:43.438Z,10.48
2022-10-22T23:41:09.125Z,10.46
2022-10-22T23:43:35.751Z,10.47
2022-10-22T23:46:02.485Z,10.42
2022-10-22T23:48:28.145Z,10.37
2022-10-22T23:53:24.724Z,10.35
2022-10-22T23:55:50.479Z,10.34
2022-10-22T23:58:16.512Z,10.34
